Time;durP1;ratioP1;P1;durP2;ratioP2;P2;SDS_P1;SDS_P2;PMS_P1;PMS_P2;Temp;Humidity;BMP_temperature;BMP_pressure;BME280_temperature;BME280_humidity;BME280_pressure;Samples;Min_cycle;Max_cycle;Signal;HPM_P1;HPM_P2
2021/10/21 00:00:30;;;;;;;4.03;3.27;;;15.60;99.90;;;;;;5025265;28;20244;-78
2021/10/21 00:02:56;;;;;;;5.57;4.03;;;15.60;99.90;;;;;;5032278;28;20153;-78
2021/10/21 00:05:21;;;;;;;8.80;3.30;;;15.60;99.90;;;;;;5032394;28;20641;-78
2021/10/21 00:07:47;;;;;;;7.80;3.47;;;15.60;99.90;;;;;;5032313;28;20240;-78
2021/10/21 00:10:14;;;;;;;3.70;2.83;;;15.60;99.90;;;;;;5020207;28;20170;-78
2021/10/21 00:12:40;;;;;;;4.47;2.70;;;15.60;99.90;;;;;;5012591;28;20166;-78
2021/10/21 00:15:07;;;;;;;4.40;2.77;;;15.70;99.90;;;;;;5012245;28;20528;-78
2021/10/21 00:17:33;;;;;;;4.37;3.20;;;15.70;99.90;;;;;;5026516;28;20177;-78
2021/10/21 00:19:59;;;;;;;3.67;3.30;;;15.70;99.90;;;;;;5031918;28;20466;-78
2021/10/21 00:22:25;;;;;;;3.80;3.40;;;15.70;99.90;;;;;;5032048;28;20400;-79
2021/10/21 00:24:50;;;;;;;2.97;2.57;;;15.70;99.90;;;;;;5032055;28;20236;-78
2021/10/21 00:27:16;;;;;;;3.30;3.00;;;15.70;99.90;;;;;;5032103;28;20457;-78
2021/10/21 00:29:41;;;;;;;3.90;3.30;;;15.60;99.90;;;;;;5029929;28;20575;-78
2021/10/21 00:32:07;;;;;;;3.67;2.60;;;15.60;99.90;;;;;;5012241;28;20204;-79
2021/10/21 00:34:33;;;;;;;4.60;3.07;;;15.60;99.90;;;;;;5028758;28;20271;-79
2021/10/21 00:36:58;;;;;;;6.23;3.73;;;15.60;99.90;;;;;;5031886;28;20515;-79
2021/10/21 00:39:24;;;;;;;4.90;3.40;;;15.60;99.90;;;;;;5031786;28;20568;-78
2021/10/21 00:41:49;;;;;;;6.43;3.10;;;15.60;99.90;;;;;;5032241;28;20256;-79
2021/10/21 00:44:19;;;;;;;9.03;3.40;;;15.50;99.90;;;;;;5031913;28;20169;-78
2021/10/21 00:46:45;;;;;;;3.10;2.63;;;15.50;99.90;;;;;;5032803;28;20256;-78
2021/10/21 00:49:10;;;;;;;2.93;2.30;;;15.50;99.90;;;;;;5035387;28;20471;-79
2021/10/21 00:51:38;;;;;;;4.63;2.90;;;15.40;99.90;;;;;;5034750;28;20294;-78
2021/10/21 00:54:04;;;;;;;5.17;3.47;;;15.30;99.90;;;;;;5035570;28;20522;-78
2021/10/21 00:56:31;;;;;;;7.33;3.80;;;15.20;99.90;;;;;;5035536;28;20414;-78
2021/10/21 00:58:56;;;;;;;3.33;3.00;;;15.10;99.90;;;;;;5035619;28;20845;-78
2021/10/21 01:01:23;;;;;;;3.53;3.23;;;15.10;99.90;;;;;;5034910;28;20424;-78
2021/10/21 01:03:50;;;;;;;4.43;3.43;;;15.00;99.90;;;;;;5035414;28;20197;-78
2021/10/21 01:06:17;;;;;;;4.70;3.20;;;15.00;99.90;;;;;;5034966;28;20770;-78
2021/10/21 01:08:42;;;;;;;4.40;3.50;;;15.00;99.90;;;;;;5019673;28;20412;-78
2021/10/21 01:11:09;;;;;;;4.90;2.70;;;14.90;99.90;;;;;;5034562;28;20413;-78
2021/10/21 01:13:34;;;;;;;4.67;3.37;;;14.90;99.90;;;;;;5035122;28;20176;-78
2021/10/21 01:16:03;;;;;;;5.33;3.30;;;14.90;99.90;;;;;;5035068;28;20476;-79
2021/10/21 01:18:28;;;;;;;4.00;3.00;;;14.90;99.90;;;;;;5034719;28;20621;-78
2021/10/21 01:20:54;;;;;;;6.07;3.10;;;14.90;99.90;;;;;;5034732;28;20439;-77
2021/10/21 01:23:19;;;;;;;5.87;2.70;;;14.80;99.90;;;;;;5034816;28;20207;-78
2021/10/21 01:25:45;;;;;;;2.70;2.50;;;14.80;99.90;;;;;;5018707;28;20191;-77
2021/10/21 01:28:10;;;;;;;4.50;2.97;;;14.80;99.90;;;;;;5014946;28;20177;-78
2021/10/21 01:30:38;;;;;;;3.80;2.40;;;14.80;99.90;;;;;;5026470;28;20185;-77
2021/10/21 01:33:03;;;;;;;2.20;2.00;;;14.80;99.90;;;;;;5034538;28;20171;-77
2021/10/21 01:35:29;;;;;;;4.07;2.23;;;14.70;99.90;;;;;;5034660;28;20818;-78
2021/10/21 01:37:55;;;;;;;4.97;1.97;;;14.70;99.90;;;;;;5034461;28;20262;-78
2021/10/21 01:40:22;;;;;;;1.73;1.63;;;14.70;99.90;;;;;;5034403;28;20990;-78
2021/10/21 01:42:47;;;;;;;2.10;1.83;;;14.70;99.90;;;;;;5017934;28;20265;-78
2021/10/21 01:45:20;;;;;;;2.50;2.20;;;14.70;99.90;;;;;;5014660;28;20490;-78
2021/10/21 01:47:46;;;;;;;2.40;2.10;;;14.70;99.90;;;;;;5014644;28;20622;-78
2021/10/21 01:50:12;;;;;;;4.83;2.10;;;14.70;99.90;;;;;;5014289;28;20517;-77
2021/10/21 01:52:38;;;;;;;3.03;1.70;;;14.60;99.90;;;;;;5014610;28;20407;-78
2021/10/21 01:55:05;;;;;;;3.00;1.73;;;14.60;99.90;;;;;;5014631;28;20255;-78
2021/10/21 01:57:31;;;;;;;3.47;1.80;;;14.60;99.90;;;;;;5014319;28;20397;-78
2021/10/21 01:59:57;;;;;;;3.33;1.50;;;14.60;99.90;;;;;;5017975;28;20467;-78
2021/10/21 02:02:22;;;;;;;2.63;1.40;;;14.50;99.90;;;;;;5034062;28;20163;-78
2021/10/21 02:04:48;;;;;;;2.23;1.10;;;14.50;99.90;;;;;;5034015;28;20167;-78
2021/10/21 02:07:13;;;;;;;8.30;1.20;;;14.50;99.90;;;;;;5034245;28;20176;-78
2021/10/21 02:09:39;;;;;;;2.33;1.20;;;14.50;99.90;;;;;;5026800;28;20189;-78
2021/10/21 02:12:05;;;;;;;1.93;1.10;;;14.50;99.90;;;;;;5013861;28;20219;-78
2021/10/21 02:14:30;;;;;;;1.80;1.40;;;14.50;99.90;;;;;;5014100;28;20197;-78
2021/10/21 02:16:57;;;;;;;1.07;0.73;;;14.40;99.90;;;;;;5031185;28;20182;-78
2021/10/21 02:19:22;;;;;;;1.40;0.80;;;14.40;99.90;;;;;;5033552;28;20203;-79
2021/10/21 02:21:48;;;;;;;3.50;1.30;;;14.30;99.90;;;;;;5016607;28;20421;-79
2021/10/21 02:24:13;;;;;;;3.70;1.33;;;14.30;99.90;;;;;;5013869;28;20639;-78
2021/10/21 02:26:39;;;;;;;2.70;1.17;;;14.20;99.90;;;;;;5013801;28;20516;-78
2021/10/21 02:29:05;;;;;;;2.57;1.00;;;14.20;99.90;;;;;;5013895;28;20168;-78
2021/10/21 02:31:30;;;;;;;3.23;1.10;;;14.20;99.90;;;;;;5016557;28;20202;-78
2021/10/21 02:33:56;;;;;;;3.37;0.77;;;14.20;99.90;;;;;;5015925;28;20274;-78
2021/10/21 02:36:21;;;;;;;5.83;1.10;;;14.20;99.90;;;;;;5013770;28;20171;-78
2021/10/21 02:38:47;;;;;;;5.10;1.17;;;14.20;99.90;;;;;;5013570;28;20195;-78
2021/10/21 02:41:12;;;;;;;6.20;1.73;;;14.10;99.90;;;;;;5027461;28;20177;-78
2021/10/21 02:43:38;;;;;;;3.30;1.20;;;14.10;99.90;;;;;;5033364;28;20301;-78
2021/10/21 02:46:04;;;;;;;3.40;0.97;;;14.10;99.90;;;;;;5033478;28;20477;-78
2021/10/21 02:48:29;;;;;;;2.33;1.10;;;14.10;99.90;;;;;;5033198;28;20165;-80
2021/10/21 02:50:55;;;;;;;3.10;1.30;;;14.10;99.90;;;;;;5015709;28;20582;-79
2021/10/21 02:53:21;;;;;;;1.60;0.90;;;14.10;99.90;;;;;;5013514;28;20275;-80
2021/10/21 02:55:46;;;;;;;1.93;0.93;;;14.00;99.90;;;;;;5013127;28;20163;-79
2021/10/21 02:58:12;;;;;;;4.23;1.20;;;14.00;99.90;;;;;;5014321;28;20254;-79
2021/10/21 03:00:38;;;;;;;3.20;1.73;;;14.10;99.90;;;;;;5021697;28;20600;-79
2021/10/21 03:03:03;;;;;;;2.33;1.00;;;14.00;99.90;;;;;;5032881;28;20186;-79
2021/10/21 03:05:29;;;;;;;5.67;1.43;;;14.00;99.90;;;;;;5033176;28;20615;-79
2021/10/21 03:07:54;;;;;;;2.00;1.10;;;14.00;99.90;;;;;;5015652;28;20183;-79
2021/10/21 03:10:20;;;;;;;2.80;1.10;;;13.90;99.90;;;;;;5025045;28;20186;-79
2021/10/21 03:12:45;;;;;;;4.10;1.00;;;13.90;99.90;;;;;;5032762;28;20608;-79
2021/10/21 03:15:11;;;;;;;4.90;1.33;;;13.90;99.90;;;;;;5032812;28;20365;-79
2021/10/21 03:17:42;;;;;;;3.70;1.00;;;13.90;99.90;;;;;;5032840;28;20170;-79
2021/10/21 03:20:12;;;;;;;3.50;0.83;;;13.90;99.90;;;;;;5029675;28;20194;-79
2021/10/21 03:22:39;;;;;;;4.70;0.97;;;13.90;99.90;;;;;;5013011;28;20415;-79
2021/10/21 03:25:06;;;;;;;2.40;1.00;;;13.90;99.90;;;;;;5031884;28;20423;-77
2021/10/21 03:27:31;;;;;;;3.87;1.60;;;13.90;99.90;;;;;;5032685;28;20832;-79
2021/10/21 03:29:57;;;;;;;1.90;0.80;;;13.80;99.90;;;;;;5030289;28;20461;-79
2021/10/21 03:32:22;;;;;;;5.83;0.97;;;13.80;99.90;;;;;;5027097;28;20215;-79
2021/10/21 03:34:48;;;;;;;5.53;1.27;;;13.80;99.90;;;;;;5029533;28;20536;-79
2021/10/21 03:37:13;;;;;;;2.40;1.20;;;13.80;99.90;;;;;;5032830;28;20186;-79
2021/10/21 03:39:39;;;;;;;5.73;1.57;;;13.80;99.90;;;;;;5032342;28;20590;-78
2021/10/21 03:42:08;;;;;;;2.33;1.10;;;13.80;99.90;;;;;;5015374;28;20638;-79
2021/10/21 03:44:35;;;;;;;2.27;0.90;;;13.80;99.90;;;;;;5028102;28;20189;-77
2021/10/21 03:47:00;;;;;;;3.93;1.37;;;13.80;99.90;;;;;;5032375;28;20442;-79
2021/10/21 03:49:26;;;;;;;5.07;2.20;;;13.80;99.90;;;;;;5032833;28;20398;-79
2021/10/21 03:51:51;;;;;;;3.43;1.17;;;13.70;99.90;;;;;;5019944;28;20175;-79
2021/10/21 03:54:17;;;;;;;1.57;0.73;;;13.70;99.90;;;;;;5012869;28;20163;-79
2021/10/21 03:56:43;;;;;;;2.60;1.20;;;13.70;99.90;;;;;;5012521;28;20162;-78
2021/10/21 03:59:09;;;;;;;3.60;1.00;;;13.70;99.90;;;;;;5031166;28;20188;-79
2021/10/21 04:01:35;;;;;;;3.30;1.53;;;13.70;99.90;;;;;;5022538;28;20446;-79
2021/10/21 04:04:00;;;;;;;5.80;1.50;;;13.70;99.90;;;;;;5012721;28;20164;-79
2021/10/21 04:06:26;;;;;;;2.33;1.07;;;13.70;99.90;;;;;;5013055;28;20177;-79
2021/10/21 04:08:51;;;;;;;4.00;1.13;;;13.70;99.90;;;;;;5013358;28;20495;-79
2021/10/21 04:11:17;;;;;;;4.60;0.80;;;13.70;99.90;;;;;;5031643;28;20642;-78
2021/10/21 04:13:42;;;;;;;4.87;1.10;;;13.70;99.90;;;;;;5032699;28;20521;-78
2021/10/21 04:16:08;;;;;;;4.80;0.90;;;13.70;99.90;;;;;;5028308;28;20173;-78
2021/10/21 04:18:33;;;;;;;3.80;1.00;;;13.70;99.90;;;;;;5032374;28;20190;-79
2021/10/21 04:20:59;;;;;;;4.03;1.20;;;13.70;99.90;;;;;;5027964;28;20597;-78
2021/10/21 04:23:24;;;;;;;2.93;0.83;;;13.70;99.90;;;;;;5016370;28;20585;-79
2021/10/21 04:25:50;;;;;;;3.17;1.10;;;13.70;99.90;;;;;;5024417;28;20174;-79
2021/10/21 04:28:16;;;;;;;3.73;1.53;;;13.80;99.90;;;;;;5035223;28;20174;-80
2021/10/21 04:30:42;;;;;;;6.27;1.17;;;13.80;99.90;;;;;;5031698;28;20624;-80
2021/10/21 04:33:08;;;;;;;2.90;0.90;;;13.70;99.90;;;;;;5033747;28;20504;-81
2021/10/21 04:35:33;;;;;;;2.23;0.77;;;13.70;99.90;;;;;;5033033;28;20203;-82
2021/10/21 04:37:59;;;;;;;2.10;0.87;;;13.70;99.90;;;;;;5036791;28;20181;-82
2021/10/21 04:40:25;;;;;;;2.70;1.20;;;13.60;99.90;;;;;;5031307;28;20270;-81
2021/10/21 04:42:50;;;;;;;1.67;0.80;;;13.60;99.90;;;;;;5033701;28;20191;-80
2021/10/21 04:45:16;;;;;;;3.77;0.90;;;13.60;99.90;;;;;;5026183;28;20185;-81
2021/10/21 04:47:41;;;;;;;3.30;0.93;;;13.60;99.90;;;;;;5019241;28;20174;-79
2021/10/21 04:50:07;;;;;;;1.33;0.77;;;13.60;99.90;;;;;;5033873;28;20669;-80
2021/10/21 04:52:35;;;;;;;2.47;0.83;;;13.60;99.90;;;;;;5030520;28;20186;-79
2021/10/21 04:55:00;;;;;;;3.00;0.80;;;13.50;99.90;;;;;;5014988;28;20411;-79
2021/10/21 04:57:26;;;;;;;1.70;0.90;;;13.50;99.90;;;;;;5013626;28;20476;-79
2021/10/21 04:59:51;;;;;;;4.27;1.07;;;13.50;99.90;;;;;;5015737;28;20185;-80
2021/10/21 05:02:17;;;;;;;2.60;0.87;;;13.50;99.90;;;;;;5029379;28;20196;-79
2021/10/21 05:04:42;;;;;;;2.80;0.60;;;13.50;99.90;;;;;;5028676;28;20181;-79
2021/10/21 05:07:08;;;;;;;3.40;0.90;;;13.40;99.90;;;;;;5015329;28;20215;-80
2021/10/21 05:09:33;;;;;;;2.00;0.80;;;13.50;99.90;;;;;;5026976;28;20231;-79
2021/10/21 05:11:59;;;;;;;2.00;0.60;;;13.40;99.90;;;;;;5016309;28;20268;-79
2021/10/21 05:14:24;;;;;;;1.17;0.73;;;13.40;99.90;;;;;;5015480;28;20622;-79
2021/10/21 05:16:50;;;;;;;3.03;0.60;;;13.40;99.90;;;;;;5015628;28;20210;-80
2021/10/21 05:19:15;;;;;;;2.20;0.60;;;13.40;99.90;;;;;;5015146;28;20537;-79
2021/10/21 05:21:41;;;;;;;4.33;0.50;;;13.40;99.90;;;;;;5031703;28;20187;-75
2021/10/21 05:24:07;;;;;;;2.13;0.57;;;13.30;99.90;;;;;;5034156;28;20717;-74
2021/10/21 05:26:32;;;;;;;0.80;0.60;;;13.30;99.90;;;;;;5034985;28;20234;-74
2021/10/21 05:28:58;;;;;;;1.80;0.70;;;13.30;99.90;;;;;;5034751;28;20181;-73
2021/10/21 05:31:23;;;;;;;1.23;0.60;;;13.30;99.90;;;;;;5029751;28;20268;-73
2021/10/21 05:33:49;;;;;;;1.23;0.70;;;13.20;99.90;;;;;;5026303;28;20178;-73
2021/10/21 05:36:14;;;;;;;1.57;0.70;;;13.10;99.90;;;;;;5014826;28;20180;-73
2021/10/21 05:38:40;;;;;;;1.10;0.80;;;13.00;99.90;;;;;;5029682;28;20184;-73
2021/10/21 05:41:05;;;;;;;2.63;0.83;;;13.00;99.90;;;;;;5030422;28;20208;-74
2021/10/21 05:43:31;;;;;;;1.30;1.00;;;13.00;99.90;;;;;;5014906;28;20157;-73
2021/10/21 05:45:57;;;;;;;1.93;0.83;;;13.00;99.90;;;;;;5021797;28;20207;-73
2021/10/21 05:48:22;;;;;;;1.03;0.50;;;12.90;99.90;;;;;;5032477;28;20212;-73
2021/10/21 05:50:48;;;;;;;2.90;0.93;;;12.90;99.90;;;;;;5026857;28;20246;-73
2021/10/21 05:53:15;;;;;;;1.00;0.70;;;12.80;99.90;;;;;;5033719;28;20149;-73
2021/10/21 05:55:40;;;;;;;3.37;0.80;;;12.80;99.90;;;;;;5022641;28;20467;-73
2021/10/21 05:58:08;;;;;;;1.47;0.80;;;12.70;99.90;;;;;;5021436;28;20777;-72
2021/10/21 06:00:33;;;;;;;1.70;1.10;;;12.70;99.90;;;;;;5035861;28;20200;-72
2021/10/21 06:02:59;;;;;;;2.03;1.47;;;12.70;99.90;;;;;;5025814;28;20510;-72
2021/10/21 06:05:24;;;;;;;1.60;1.10;;;12.70;99.90;;;;;;5031570;28;20189;-71
2021/10/21 06:07:50;;;;;;;3.87;1.53;;;12.70;99.90;;;;;;5033597;28;20683;-72
2021/10/21 06:10:16;;;;;;;1.10;0.90;;;12.60;99.90;;;;;;5015909;28;20560;-72
2021/10/21 06:12:44;;;;;;;2.03;1.40;;;12.60;99.90;;;;;;5025335;28;20176;-74
2021/10/21 06:15:13;;;;;;;3.33;1.43;;;12.50;99.90;;;;;;5033257;28;20551;-74
2021/10/21 06:17:41;;;;;;;1.13;0.97;;;12.40;99.90;;;;;;5027695;28;20409;-74
2021/10/21 06:20:10;;;;;;;1.70;1.30;;;12.30;99.90;;;;;;5031518;28;20804;-73
2021/10/21 06:22:36;;;;;;;2.10;0.80;;;12.20;99.90;;;;;;5030181;28;20415;-72
2021/10/21 06:25:03;;;;;;;2.97;1.13;;;12.20;99.90;;;;;;5032361;28;20769;-72
2021/10/21 06:27:29;;;;;;;4.53;1.17;;;12.20;99.90;;;;;;5033928;28;20529;-72
2021/10/21 06:29:54;;;;;;;2.63;1.33;;;12.10;99.90;;;;;;5029645;28;20440;-72
2021/10/21 06:32:20;;;;;;;1.70;1.20;;;12.00;99.90;;;;;;5034554;28;20216;-72
2021/10/21 06:34:45;;;;;;;1.90;1.30;;;11.90;99.90;;;;;;5033177;28;20216;-72
2021/10/21 06:37:11;;;;;;;2.60;1.27;;;11.90;99.90;;;;;;5032776;28;20181;-73
2021/10/21 06:39:37;;;;;;;4.30;1.50;;;11.80;99.90;;;;;;5032383;28;20259;-72
2021/10/21 06:42:02;;;;;;;1.90;1.10;;;11.80;99.90;;;;;;5026758;28;20267;-71
2021/10/21 06:44:28;;;;;;;3.90;1.50;;;11.70;99.90;;;;;;5032884;28;20177;-71
2021/10/21 06:46:54;;;;;;;2.00;1.03;;;11.70;99.90;;;;;;5028554;28;20181;-73
2021/10/21 06:49:19;;;;;;;3.10;1.23;;;11.60;99.90;;;;;;5020912;28;20200;-73
2021/10/21 06:51:45;;;;;;;3.17;1.70;;;11.60;99.90;;;;;;5028478;28;20181;-73
2021/10/21 06:54:10;;;;;;;2.50;1.23;;;11.50;99.90;;;;;;5031802;28;20188;-72
2021/10/21 06:56:36;;;;;;;2.27;0.93;;;11.50;99.90;;;;;;5032353;28;20177;-72
2021/10/21 06:59:02;;;;;;;4.87;1.10;;;11.40;99.90;;;;;;5032154;28;20184;-73
2021/10/21 07:01:28;;;;;;;3.80;2.00;;;11.40;99.90;;;;;;5027867;28;20184;-72
2021/10/21 07:03:53;;;;;;;1.70;1.30;;;11.40;99.90;;;;;;5030657;28;20428;-72
2021/10/21 07:06:19;;;;;;;1.90;1.20;;;11.40;99.90;;;;;;5031815;28;20522;-73
2021/10/21 07:08:44;;;;;;;3.50;1.40;;;11.30;99.90;;;;;;5032508;28;20191;-74
2021/10/21 07:11:10;;;;;;;4.40;1.10;;;11.30;99.90;;;;;;5034499;28;20267;-73
2021/10/21 07:13:37;;;;;;;4.07;1.07;;;11.30;99.90;;;;;;5031080;28;20584;-72
2021/10/21 07:16:04;;;;;;;3.53;1.00;;;11.20;99.90;;;;;;5029382;28;20177;-72
2021/10/21 07:18:30;;;;;;;2.60;1.10;;;11.20;99.90;;;;;;5028534;28;20522;-75
2021/10/21 07:20:58;;;;;;;3.57;0.93;;;11.20;99.90;;;;;;5028456;28;20553;-72
2021/10/21 07:23:23;;;;;;;1.77;1.27;;;11.20;99.90;;;;;;5017926;28;20215;-72
2021/10/21 07:25:49;;;;;;;4.80;1.50;;;11.20;99.90;;;;;;5032125;28;20446;-73
2021/10/21 07:28:14;;;;;;;2.60;1.10;;;11.10;99.90;;;;;;5032009;28;20557;-72
2021/10/21 07:30:40;;;;;;;3.87;1.10;;;11.10;99.90;;;;;;5025942;28;20302;-74
2021/10/21 07:33:05;;;;;;;2.23;1.10;;;11.10;99.90;;;;;;5012803;28;20162;-73
2021/10/21 07:35:31;;;;;;;5.77;1.87;;;11.00;99.90;;;;;;5027169;28;20184;-73
2021/10/21 07:37:59;;;;;;;2.33;1.13;;;11.00;99.90;;;;;;5030872;28;20180;-74
2021/10/21 07:40:25;;;;;;;2.93;1.30;;;11.00;99.90;;;;;;5016044;28;20476;-72
2021/10/21 07:42:51;;;;;;;4.90;1.67;;;11.00;99.90;;;;;;5013398;28;20419;-72
2021/10/21 07:45:17;;;;;;;8.93;3.80;;;11.00;99.90;;;;;;5012328;28;20826;-75
2021/10/21 07:47:42;;;;;;;6.83;2.70;;;11.00;99.90;;;;;;5024946;28;20173;-73
2021/10/21 07:50:09;;;;;;;4.40;1.93;;;11.10;99.90;;;;;;5031074;28;20491;-73
2021/10/21 07:52:37;;;;;;;4.63;2.27;;;11.10;99.90;;;;;;5012580;28;20158;-72
2021/10/21 07:55:04;;;;;;;9.37;4.63;;;11.10;99.90;;;;;;5014621;28;20398;-73
2021/10/21 07:57:30;;;;;;;6.03;3.53;;;11.10;99.90;;;;;;5036308;28;20442;-72
2021/10/21 07:59:56;;;;;;;5.50;2.43;;;11.10;99.90;;;;;;5025643;28;20463;-73
2021/10/21 08:02:21;;;;;;;6.50;2.27;;;11.20;99.90;;;;;;5020431;28;20832;-72
2021/10/21 08:04:47;;;;;;;5.13;2.27;;;11.20;99.90;;;;;;5036247;28;20530;-73
2021/10/21 08:07:13;;;;;;;5.23;2.17;;;11.30;99.90;;;;;;5034879;28;20230;-73
2021/10/21 08:09:39;;;;;;;7.60;1.80;;;11.30;99.90;;;;;;5034440;28;20916;-74
2021/10/21 08:12:07;;;;;;;7.17;2.03;;;11.30;99.90;;;;;;5025751;28;20204;-73
2021/10/21 08:14:32;;;;;;;7.77;3.03;;;11.30;99.90;;;;;;5035205;28;20568;-73
2021/10/21 08:16:59;;;;;;;6.27;2.03;;;11.30;99.90;;;;;;5029541;28;20506;-73
2021/10/21 08:19:26;;;;;;;9.40;1.83;;;11.30;99.90;;;;;;5016148;28;20402;-74
2021/10/21 08:21:53;;;;;;;7.60;2.37;;;11.30;99.90;;;;;;5015822;28;20420;-74
2021/10/21 08:24:20;;;;;;;6.80;2.10;;;11.30;99.90;;;;;;5015832;28;20483;-74
2021/10/21 08:26:48;;;;;;;9.60;2.97;;;11.40;99.90;;;;;;5016069;28;20456;-73
2021/10/21 08:29:14;;;;;;;3.83;1.60;;;11.40;99.90;;;;;;5025993;28;20431;-73
2021/10/21 08:31:40;;;;;;;6.67;2.13;;;11.40;99.90;;;;;;5029678;28;21171;-73
2021/10/21 08:34:05;;;;;;;3.40;1.83;;;11.50;99.90;;;;;;5035645;28;20172;-73
2021/10/21 08:36:31;;;;;;;6.23;2.40;;;11.50;99.90;;;;;;5035591;28;20161;-74
2021/10/21 08:38:57;;;;;;;5.30;2.63;;;11.50;99.90;;;;;;5035157;28;20196;-73
2021/10/21 08:41:24;;;;;;;6.97;2.20;;;11.50;99.90;;;;;;5035185;28;20259;-72
2021/10/21 08:43:50;;;;;;;6.87;2.50;;;11.50;99.90;;;;;;5035085;28;20875;-73
2021/10/21 08:46:22;;;;;;;9.70;3.70;;;11.60;99.90;;;;;;5032807;28;20952;-73
2021/10/21 08:48:55;;;;;;;7.97;2.27;;;11.60;99.90;;;;;;5032069;28;20427;-74
2021/10/21 08:51:21;;;;;;;10.20;3.77;;;11.60;99.90;;;;;;5019794;28;20900;-74
2021/10/21 08:53:46;;;;;;;6.33;2.90;;;11.60;99.90;;;;;;5025027;28;20419;-74
2021/10/21 08:56:12;;;;;;;12.00;3.10;;;11.70;99.90;;;;;;5035557;28;20177;-73
2021/10/21 08:58:38;;;;;;;6.30;2.00;;;11.80;99.90;;;;;;5035044;28;20675;-73
2021/10/21 09:03:48;;;;;;;10.50;3.10;;;11.90;99.90;;;;;;5102455;27;20515;-72
2021/10/21 09:06:30;;;;;;;11.43;3.63;;;12.00;99.90;;;;;;5089594;28;20420;-73
2021/10/21 09:08:57;;;;;;;8.97;2.60;;;12.10;99.90;;;;;;5073287;28;20788;-74
2021/10/21 09:11:23;;;;;;;8.90;2.97;;;12.20;99.90;;;;;;5083993;28;20417;-73
2021/10/21 09:14:08;;;;;;;11.03;4.00;;;12.30;99.90;;;;;;5089630;28;20390;-74
2021/10/21 09:16:34;;;;;;;9.07;2.80;;;12.40;99.90;;;;;;5085240;28;20417;-73
2021/10/21 09:19:05;;;;;;;5.50;2.53;;;12.50;99.90;;;;;;5088987;28;20389;-73
2021/10/21 09:21:33;;;;;;;3.77;2.33;;;12.60;99.90;;;;;;5089140;28;20461;-73
2021/10/21 09:24:23;;;;;;;6.10;2.70;;;12.60;99.90;;;;;;5089745;28;20417;-72
2021/10/21 09:27:10;;;;;;;6.17;2.73;;;12.60;99.90;;;;;;5074301;28;20390;-73
2021/10/21 09:29:39;;;;;;;7.30;3.07;;;12.60;99.90;;;;;;5073450;28;20501;-72
2021/10/21 09:32:10;;;;;;;5.73;2.93;;;12.50;99.90;;;;;;5088057;28;21311;-74
2021/10/21 09:34:46;;;;;;;6.73;3.40;;;12.50;99.90;;;;;;5089425;28;20611;-72
2021/10/21 09:37:14;;;;;;;6.47;2.90;;;12.40;99.90;;;;;;5089005;28;20420;-72
2021/10/21 09:39:46;;;;;;;12.00;3.50;;;12.40;99.90;;;;;;5080593;28;21040;-73
2021/10/21 09:42:13;;;;;;;4.60;2.57;;;12.30;99.90;;;;;;5073475;28;20458;-73
2021/10/21 09:44:40;;;;;;;7.30;3.30;;;12.30;99.90;;;;;;5076015;28;20433;-73
2021/10/21 09:47:15;;;;;;;11.90;3.90;;;12.30;99.90;;;;;;5074311;28;20489;-73
2021/10/21 09:49:44;;;;;;;5.87;2.50;;;12.30;99.90;;;;;;5068516;28;20758;-73
2021/10/21 09:52:25;;;;;;;4.87;2.70;;;12.30;99.90;;;;;;5087637;28;20413;-73
2021/10/21 09:54:51;;;;;;;4.23;2.30;;;12.30;99.90;;;;;;5080680;28;20489;-73
2021/10/21 09:57:17;;;;;;;6.60;2.40;;;12.30;99.90;;;;;;5069474;28;20462;-73
2021/10/21 09:59:45;;;;;;;5.50;2.27;;;12.30;99.90;;;;;;5081634;28;20417;-73
2021/10/21 10:02:15;;;;;;;4.43;2.70;;;12.20;99.90;;;;;;5086536;28;20462;-73
2021/10/21 10:04:47;;;;;;;11.40;3.00;;;12.20;99.90;;;;;;5088548;28;20417;-73
2021/10/21 10:07:13;;;;;;;8.90;3.13;;;12.20;99.90;;;;;;5087301;28;20499;-73
2021/10/21 10:09:39;;;;;;;4.20;2.27;;;12.30;99.90;;;;;;5088331;28;20458;-73
2021/10/21 10:12:06;;;;;;;3.77;2.00;;;12.30;99.90;;;;;;5082682;28;20420;-73
2021/10/21 10:14:36;;;;;;;4.97;2.20;;;12.40;99.90;;;;;;5078138;28;20676;-73
2021/10/21 10:17:02;;;;;;;3.67;2.13;;;12.40;99.90;;;;;;5075027;28;20572;-72
2021/10/21 10:19:29;;;;;;;6.93;2.70;;;12.40;99.90;;;;;;5075053;28;20480;-73
2021/10/21 10:21:57;;;;;;;5.07;2.43;;;12.40;99.90;;;;;;5060171;28;20702;-73
2021/10/21 10:24:29;;;;;;;5.60;2.10;;;12.40;99.90;;;;;;5054803;28;20395;-74
2021/10/21 10:26:57;;;;;;;4.13;2.10;;;12.40;99.90;;;;;;5054806;28;20398;-73
2021/10/21 10:32:01;;;;;;;4.23;1.80;;;12.40;99.90;;;;;;5069189;28;20524;-73
2021/10/21 10:47:54;;;;;;;4.77;1.80;;;12.40;99.90;;;;;;5110334;27;20535;-74
2021/10/21 10:53:07;;;;;;;6.00;1.60;;;12.40;99.90;;;;;;5090088;27;20533;-73
2021/10/21 10:55:52;;;;;;;4.60;1.83;;;12.40;99.90;;;;;;5088907;28;20391;-73
2021/10/21 10:58:27;;;;;;;5.60;2.07;;;12.40;99.90;;;;;;5089423;28;20468;-73
2021/10/21 11:00:55;;;;;;;3.00;1.57;;;12.40;99.90;;;;;;5089618;28;20454;-72
2021/10/21 11:03:35;;;;;;;4.27;1.93;;;12.40;99.90;;;;;;5076725;28;20425;-73
2021/10/21 11:06:03;;;;;;;6.47;2.23;;;12.30;99.90;;;;;;5078691;28;20482;-73
2021/10/21 11:08:51;;;;;;;3.40;1.97;;;12.20;99.90;;;;;;5087685;28;20973;-72
2021/10/21 11:11:57;;;;;;;5.20;2.00;;;12.20;99.90;;;;;;5078856;28;20487;-72
2021/10/21 11:14:44;;;;;;;5.20;2.40;;;12.20;99.90;;;;;;5068215;28;20459;-72
2021/10/21 11:17:12;;;;;;;6.27;2.80;;;12.10;99.90;;;;;;5085366;28;20483;-72
2021/10/21 11:25:04;;;;;;;6.77;2.60;;;12.10;99.90;;;;;;5179412;27;20541;-71
2021/10/21 11:30:17;;;;;;;3.97;2.23;;;12.10;99.90;;;;;;5088898;27;20511;-72
2021/10/21 11:32:44;;;;;;;5.60;2.43;;;12.20;99.90;;;;;;5089686;28;20452;-73
2021/10/21 11:35:13;;;;;;;7.10;2.63;;;12.30;99.90;;;;;;5082516;28;20390;-73
2021/10/21 11:37:43;;;;;;;8.80;2.70;;;12.40;99.90;;;;;;5066911;28;20398;-72
2021/10/21 11:40:14;;;;;;;6.50;2.93;;;12.40;99.90;;;;;;5069592;28;20386;-73
2021/10/21 11:42:40;;;;;;;11.40;2.00;;;12.40;99.90;;;;;;5071690;28;20471;-72
2021/10/21 11:45:09;;;;;;;10.47;2.73;;;12.40;99.90;;;;;;5069300;28;20862;-72
2021/10/21 11:47:37;;;;;;;8.93;2.77;;;12.40;99.90;;;;;;5068864;28;20150;-72
2021/10/21 11:50:05;;;;;;;6.17;2.60;;;12.40;99.90;;;;;;5069247;28;20401;-73
2021/10/21 11:52:40;;;;;;;5.40;2.60;;;12.30;99.90;;;;;;5068835;28;20406;-72
2021/10/21 11:55:06;;;;;;;6.70;2.67;;;12.30;99.90;;;;;;5061685;28;20417;-74
2021/10/21 11:57:33;;;;;;;8.80;2.80;;;12.30;99.90;;;;;;5065402;28;20512;-72
2021/10/21 11:59:59;;;;;;;3.53;2.20;;;12.30;99.90;;;;;;5065632;28;20429;-73
2021/10/21 12:02:29;;;;;;;6.13;1.83;;;12.30;99.90;;;;;;5064816;28;20425;-72
2021/10/21 12:04:55;;;;;;;5.40;2.10;;;12.30;99.90;;;;;;5068775;28;20902;-73
2021/10/21 12:07:22;;;;;;;6.20;2.20;;;12.30;99.90;;;;;;5060124;28;20409;-72
2021/10/21 12:09:47;;;;;;;4.97;1.73;;;12.30;99.90;;;;;;5059025;28;20454;-73
2021/10/21 12:12:15;;;;;;;4.77;1.40;;;12.30;99.90;;;;;;5074527;28;20958;-73
2021/10/21 12:14:43;;;;;;;5.73;1.23;;;12.30;99.90;;;;;;5088963;28;20177;-72
2021/10/21 12:17:10;;;;;;;2.03;1.10;;;12.30;99.90;;;;;;5088892;28;20420;-73
2021/10/21 12:19:38;;;;;;;2.23;1.10;;;12.30;99.90;;;;;;5088798;28;20429;-73
2021/10/21 12:24:43;;;;;;;1.80;1.40;;;12.50;99.90;;;;;;5067517;28;21002;-73
2021/10/21 12:27:10;;;;;;;2.80;1.27;;;12.50;99.90;;;;;;5049066;28;20480;-73
2021/10/21 12:29:42;;;;;;;2.67;1.70;;;12.60;99.90;;;;;;5048497;28;20411;-73
2021/10/21 12:32:12;;;;;;;2.00;1.27;;;12.50;99.90;;;;;;5051500;28;20430;-73
2021/10/21 12:34:38;;;;;;;3.00;1.60;;;12.40;99.90;;;;;;5050142;28;20418;-73
2021/10/21 12:37:07;;;;;;;2.60;1.67;;;12.30;99.90;;;;;;5065133;28;20454;-74
2021/10/21 12:39:34;;;;;;;1.60;1.10;;;12.30;99.90;;;;;;5045063;28;20843;-73
2021/10/21 12:42:02;;;;;;;3.30;1.27;;;12.20;99.90;;;;;;5040323;28;20400;-74
2021/10/21 12:44:30;;;;;;;4.07;1.40;;;12.10;99.90;;;;;;5032530;28;20987;-73
2021/10/21 12:47:20;;;;;;;4.70;1.60;;;12.10;99.90;;;;;;5048438;28;20392;-73
2021/10/21 12:55:22;;;;;;;3.20;1.47;;;12.10;99.90;;;;;;5068479;28;20568;-71
2021/10/21 12:57:50;;;;;;;1.97;1.50;;;12.00;99.90;;;;;;5067968;28;20409;-73
2021/10/21 13:00:38;;;;;;;2.43;1.50;;;12.00;99.90;;;;;;5068499;28;20414;-71
2021/10/21 13:05:50;;;;;;;3.73;1.20;;;11.60;99.90;;;;;;5069517;28;20504;-71
2021/10/21 13:08:16;;;;;;;4.40;1.47;;;11.50;99.90;;;;;;5069077;28;20831;-71
2021/10/21 13:10:48;;;;;;;5.50;1.43;;;11.50;99.90;;;;;;5069367;28;20405;-71
2021/10/21 13:16:01;;;;;;;3.40;1.10;;;11.50;99.90;;;;;;5068803;28;20535;-72
2021/10/21 13:18:27;;;;;;;5.17;1.70;;;11.40;99.90;;;;;;5067581;28;20933;-72
2021/10/21 13:20:52;;;;;;;2.53;1.30;;;11.30;99.90;;;;;;5067148;28;20410;-71
2021/10/21 13:23:19;;;;;;;4.43;1.70;;;11.30;99.90;;;;;;5067844;28;20427;-72
2021/10/21 13:25:45;;;;;;;2.50;1.50;;;11.20;99.90;;;;;;5068254;28;20167;-72
2021/10/21 13:28:13;;;;;;;4.40;1.23;;;11.20;99.90;;;;;;5068921;28;20394;-72